Time;durP1;ratioP1;P1;durP2;ratioP2;P2;SDS_P1;SDS_P2;PMS_P1;PMS_P2;Temp;Humidity;BMP_temperature;BMP_pressure;BME280_temperature;BME280_humidity;BME280_pressure;Samples;Min_cycle;Max_cycle;Signal;HPM_P1;HPM_P2
2021/01/20 00:00:45;;;;;;;37.22;5.82;;;23.30;53.90;;;;;;5067356;28;20040;-55
2021/01/20 00:03:13;;;;;;;41.28;5.15;;;23.30;54.30;;;;;;5064529;28;20027;-52
2021/01/20 00:05:40;;;;;;;16.08;4.63;;;23.30;54.00;;;;;;5066700;28;20430;-50
2021/01/20 00:08:07;;;;;;;31.85;5.38;;;23.30;54.60;;;;;;5070960;28;20052;-58
2021/01/20 00:10:34;;;;;;;27.38;4.90;;;23.30;54.70;;;;;;5070991;28;20032;-58
2021/01/20 00:13:02;;;;;;;21.17;4.20;;;23.40;54.80;;;;;;5071869;28;20516;-48
2021/01/20 00:15:29;;;;;;;16.58;4.72;;;23.40;54.00;;;;;;5074934;28;20036;-58
2021/01/20 00:17:57;;;;;;;27.30;4.30;;;23.40;53.80;;;;;;5074232;28;20577;-55
2021/01/20 00:20:24;;;;;;;14.15;3.65;;;23.40;53.20;;;;;;5074199;28;20028;-59
2021/01/20 00:22:53;;;;;;;23.55;5.00;;;23.40;53.10;;;;;;5074839;28;20025;-59
2021/01/20 00:25:22;;;;;;;16.00;3.42;;;23.30;54.10;;;;;;5074128;28;20032;-54
2021/01/20 00:27:49;;;;;;;20.90;3.88;;;23.20;53.20;;;;;;5074327;28;20061;-58
2021/01/20 00:30:18;;;;;;;20.00;3.70;;;23.30;53.30;;;;;;5074456;28;20498;-60
2021/01/20 00:32:45;;;;;;;14.68;3.35;;;23.20;54.00;;;;;;5072779;28;20029;-59
2021/01/20 00:35:13;;;;;;;17.77;4.63;;;23.30;54.40;;;;;;5071793;28;20021;-56
2021/01/20 00:37:41;;;;;;;16.38;3.72;;;23.30;54.40;;;;;;5073409;28;20058;-57
2021/01/20 00:40:09;;;;;;;20.50;3.72;;;23.30;55.00;;;;;;5074301;28;20028;-53
2021/01/20 00:42:36;;;;;;;31.17;4.93;;;23.30;54.70;;;;;;5073947;28;20020;-53
2021/01/20 00:45:05;;;;;;;22.77;3.97;;;23.30;55.00;;;;;;5072450;28;20097;-53
2021/01/20 00:47:32;;;;;;;19.00;5.05;;;23.30;54.80;;;;;;5073314;28;20463;-51
2021/01/20 00:50:00;;;;;;;19.23;5.40;;;23.30;55.80;;;;;;5073847;28;20036;-54
2021/01/20 00:52:27;;;;;;;29.92;3.80;;;23.30;55.40;;;;;;5074101;28;20100;-53
2021/01/20 00:54:54;;;;;;;13.13;4.15;;;23.20;55.80;;;;;;5073824;28;20033;-56
2021/01/20 00:57:21;;;;;;;38.22;5.38;;;23.20;55.80;;;;;;5073682;28;20086;-53
2021/01/20 00:59:49;;;;;;;34.90;6.20;;;23.20;57.30;;;;;;5073706;28;20020;-54
2021/01/20 01:02:16;;;;;;;18.45;3.42;;;23.20;56.80;;;;;;5073534;28;20039;-53
2021/01/20 01:04:44;;;;;;;19.73;4.05;;;23.20;56.80;;;;;;5061577;28;20474;-51
2021/01/20 01:07:11;;;;;;;15.68;3.97;;;23.20;57.20;;;;;;5069937;28;20614;-51
2021/01/20 01:09:39;;;;;;;17.35;3.67;;;23.30;56.80;;;;;;5069573;28;20479;-57
2021/01/20 01:12:06;;;;;;;19.50;3.28;;;23.30;57.10;;;;;;5068360;28;20103;-54
2021/01/20 01:14:34;;;;;;;32.13;4.60;;;23.30;56.40;;;;;;5069949;28;20110;-53
2021/01/20 01:17:02;;;;;;;18.48;3.22;;;23.30;57.00;;;;;;5069333;28;20024;-48
2021/01/20 01:19:29;;;;;;;23.52;3.83;;;23.30;57.00;;;;;;5068451;28;20032;-49
2021/01/20 01:21:57;;;;;;;22.20;3.58;;;23.30;57.10;;;;;;5067735;28;20083;-53
2021/01/20 01:24:24;;;;;;;17.95;3.58;;;23.40;57.50;;;;;;5069174;28;20064;-47
2021/01/20 01:26:51;;;;;;;10.30;2.97;;;23.40;57.40;;;;;;5067719;28;20036;-54
2021/01/20 01:29:19;;;;;;;14.85;3.90;;;23.40;56.70;;;;;;5069852;28;20028;-59
2021/01/20 01:31:46;;;;;;;19.77;4.75;;;23.40;58.10;;;;;;5066932;28;20056;-51
2021/01/20 01:34:14;;;;;;;20.25;3.88;;;23.40;57.90;;;;;;5068318;28;20481;-58
2021/01/20 01:36:41;;;;;;;19.92;3.33;;;23.40;58.10;;;;;;5069717;28;20120;-61
2021/01/20 01:39:08;;;;;;;20.15;4.03;;;23.40;58.90;;;;;;5069811;28;20482;-58
2021/01/20 01:41:36;;;;;;;19.55;4.20;;;23.50;60.30;;;;;;5064342;28;20047;-60
2021/01/20 01:44:03;;;;;;;21.20;3.78;;;23.50;60.90;;;;;;5069302;28;20149;-52
2021/01/20 01:46:30;;;;;;;22.15;4.40;;;23.50;61.50;;;;;;5068353;28;20032;-59
2021/01/20 01:48:58;;;;;;;17.73;4.18;;;23.60;61.30;;;;;;5068702;28;20040;-54
2021/01/20 01:51:26;;;;;;;11.43;3.67;;;23.60;60.90;;;;;;5064539;28;20074;-56
2021/01/20 01:53:54;;;;;;;17.63;3.85;;;23.60;60.60;;;;;;5069126;28;20142;-56
2021/01/20 01:56:25;;;;;;;17.67;5.20;;;23.70;61.90;;;;;;5069018;28;20021;-62
2021/01/20 01:58:54;;;;;;;18.65;3.70;;;23.70;61.90;;;;;;5068284;28;20135;-64
2021/01/20 02:01:21;;;;;;;17.63;4.60;;;23.70;61.70;;;;;;5065345;28;20096;-63
2021/01/20 02:03:50;;;;;;;12.48;3.83;;;23.80;61.80;;;;;;5068913;28;20379;-64
2021/01/20 02:06:17;;;;;;;14.40;3.63;;;23.80;62.80;;;;;;5068872;28;20081;-55
2021/01/20 02:08:47;;;;;;;19.10;3.88;;;23.80;63.10;;;;;;5069373;28;20558;-58
2021/01/20 02:11:51;;;;;;;9.80;3.50;;;23.80;62.70;;;;;;5065354;28;20128;-57
2021/01/20 02:14:53;;;;;;;11.60;3.45;;;23.90;63.90;;;;;;5067104;28;20074;-63
2021/01/20 02:17:58;;;;;;;13.57;3.25;;;23.90;63.70;;;;;;5052281;28;20045;-62
2021/01/20 02:20:31;;;;;;;13.90;3.03;;;23.90;63.70;;;;;;5062865;28;20036;-59
2021/01/20 02:23:10;;;;;;;14.05;3.40;;;23.90;63.30;;;;;;5068679;28;20109;-60
2021/01/20 02:26:11;;;;;;;15.05;3.78;;;24.00;63.80;;;;;;5068391;28;20032;-61
2021/01/20 02:28:54;;;;;;;7.80;3.30;;;24.00;63.50;;;;;;5054387;28;20039;-59
2021/01/20 02:31:28;;;;;;;12.52;3.20;;;24.00;63.60;;;;;;5063075;28;20534;-61
2021/01/20 02:34:01;;;;;;;17.65;4.60;;;24.00;63.70;;;;;;5067501;28;20028;-60
2021/01/20 02:36:30;;;;;;;15.05;3.85;;;24.10;62.60;;;;;;5066613;28;20016;-58
2021/01/20 02:38:59;;;;;;;11.68;3.33;;;24.10;61.40;;;;;;5066696;28;20756;-53
2021/01/20 02:41:29;;;;;;;14.00;3.72;;;24.10;58.20;;;;;;5060920;28;20486;-50
2021/01/20 02:44:00;;;;;;;12.30;2.70;;;24.10;58.00;;;;;;5066399;28;20063;-53
2021/01/20 02:46:28;;;;;;;20.30;3.80;;;24.20;56.50;;;;;;5068130;28;20041;-53
2021/01/20 02:48:57;;;;;;;16.58;3.38;;;24.20;56.60;;;;;;5068620;28;20028;-53
2021/01/20 02:51:48;;;;;;;21.88;3.75;;;24.20;57.40;;;;;;5063756;28;20033;-57
2021/01/20 02:54:18;;;;;;;56.47;7.78;;;24.20;56.60;;;;;;5065528;28;20451;-57
2021/01/20 02:56:49;;;;;;;92.70;11.75;;;24.20;57.10;;;;;;5067560;28;20162;-46
2021/01/20 02:59:18;;;;;;;120.07;12.82;;;24.20;57.00;;;;;;5068210;28;20028;-58
2021/01/20 03:01:54;;;;;;;137.35;16.67;;;24.30;57.10;;;;;;5064090;28;20033;-56
2021/01/20 03:04:23;;;;;;;174.70;21.77;;;24.30;58.20;;;;;;5067599;28;20040;-58
2021/01/20 03:06:53;;;;;;;199.13;28.52;;;24.30;59.70;;;;;;5067867;28;20166;-56
2021/01/20 03:09:21;;;;;;;101.72;15.52;;;24.40;60.20;;;;;;5068103;28;20110;-52
2021/01/20 03:11:49;;;;;;;140.80;16.02;;;24.40;57.60;;;;;;5063397;28;20387;-56
2021/01/20 03:14:22;;;;;;;93.00;13.40;;;24.50;57.50;;;;;;5066260;28;20028;-57
2021/01/20 03:16:50;;;;;;;73.22;11.82;;;24.40;55.70;;;;;;5068162;28;20025;-55
2021/01/20 03:19:17;;;;;;;63.28;10.00;;;24.40;55.30;;;;;;5067001;28;20024;-57
2021/01/20 03:21:45;;;;;;;51.95;8.35;;;24.40;54.00;;;;;;5063028;28;20055;-58
2021/01/20 03:24:12;;;;;;;46.63;6.95;;;24.50;53.40;;;;;;5067698;28;20032;-55
2021/01/20 03:26:40;;;;;;;68.40;9.45;;;24.40;52.90;;;;;;5067816;28;20051;-59
2021/01/20 03:29:07;;;;;;;47.65;7.32;;;24.50;54.10;;;;;;5067546;28;20021;-60
2021/01/20 03:31:34;;;;;;;42.10;5.70;;;24.40;53.10;;;;;;5062972;28;20021;-54
2021/01/20 03:34:02;;;;;;;42.58;5.70;;;24.50;52.80;;;;;;5067873;28;20024;-52
2021/01/20 03:36:29;;;;;;;37.67;6.68;;;24.40;53.30;;;;;;5066995;28;20056;-58
2021/01/20 03:38:57;;;;;;;50.80;8.00;;;24.40;53.10;;;;;;5067662;28;20356;-52
2021/01/20 03:41:24;;;;;;;38.63;6.53;;;24.40;53.20;;;;;;5061854;28;20078;-52
2021/01/20 03:43:52;;;;;;;33.35;5.43;;;24.50;53.90;;;;;;5067835;28;20047;-58
2021/01/20 03:46:19;;;;;;;42.05;6.57;;;24.50;54.50;;;;;;5067350;28;20028;-50
2021/01/20 03:48:47;;;;;;;24.50;5.22;;;24.50;54.40;;;;;;5070389;28;20043;-52
2021/01/20 03:51:14;;;;;;;36.08;4.82;;;24.60;53.90;;;;;;5066656;28;20397;-53
2021/01/20 03:53:42;;;;;;;28.30;4.80;;;24.60;53.90;;;;;;5071642;28;20159;-54
2021/01/20 03:56:09;;;;;;;37.72;6.43;;;24.60;54.10;;;;;;5071694;28;20020;-53
2021/01/20 03:58:37;;;;;;;35.10;6.20;;;24.70;55.80;;;;;;5071668;28;20032;-59
2021/01/20 04:01:04;;;;;;;37.40;4.68;;;24.70;55.30;;;;;;5066517;28;20078;-53
2021/01/20 04:03:32;;;;;;;34.67;5.80;;;24.70;54.80;;;;;;5071583;28;20150;-52
2021/01/20 04:05:59;;;;;;;33.85;4.93;;;24.70;56.00;;;;;;5071167;28;20438;-51
2021/01/20 04:08:27;;;;;;;25.95;5.85;;;24.70;54.80;;;;;;5071235;28;20048;-54
2021/01/20 04:10:54;;;;;;;25.75;5.30;;;24.70;55.30;;;;;;5065712;28;20024;-58
2021/01/20 04:13:23;;;;;;;25.05;5.55;;;24.70;54.60;;;;;;5071221;28;20395;-51
2021/01/20 04:15:51;;;;;;;24.55;4.30;;;24.80;54.90;;;;;;5069390;28;20029;-52
2021/01/20 04:18:19;;;;;;;23.80;4.22;;;24.80;55.50;;;;;;5070470;28;20060;-56
2021/01/20 04:20:47;;;;;;;25.10;5.28;;;24.80;54.30;;;;;;5063738;28;20098;-51
2021/01/20 04:23:14;;;;;;;18.15;3.58;;;24.80;54.20;;;;;;5071399;28;20565;-56
2021/01/20 04:25:42;;;;;;;17.08;3.22;;;24.90;54.20;;;;;;5071005;28;20415;-59
2021/01/20 04:28:13;;;;;;;16.02;3.83;;;24.80;54.40;;;;;;5070734;28;20426;-56
2021/01/20 04:30:40;;;;;;;17.42;3.67;;;24.80;54.50;;;;;;5065083;28;20176;-56
2021/01/20 04:33:08;;;;;;;13.38;2.78;;;24.90;54.40;;;;;;5071191;28;20525;-49
2021/01/20 04:35:35;;;;;;;19.67;4.47;;;24.90;54.30;;;;;;5070249;28;20024;-52
2021/01/20 04:38:04;;;;;;;20.05;4.20;;;24.90;55.20;;;;;;5070611;28;20098;-54
2021/01/20 04:40:32;;;;;;;16.15;3.58;;;24.90;53.50;;;;;;5065956;28;20036;-50
2021/01/20 04:43:01;;;;;;;17.17;3.65;;;24.90;53.60;;;;;;5068964;28;20474;-49
2021/01/20 04:45:28;;;;;;;16.58;4.03;;;24.90;53.90;;;;;;5069728;28;20147;-55
2021/01/20 04:47:57;;;;;;;12.77;2.72;;;24.90;53.40;;;;;;5071023;28;20028;-55
2021/01/20 04:50:27;;;;;;;15.00;3.40;;;24.90;53.00;;;;;;5066404;28;20066;-55
2021/01/20 04:52:55;;;;;;;10.65;2.58;;;24.90;52.60;;;;;;5070505;28;20072;-51
2021/01/20 04:55:23;;;;;;;12.90;3.67;;;24.90;52.90;;;;;;5071125;28;20020;-49
2021/01/20 04:57:51;;;;;;;13.25;2.97;;;24.90;53.30;;;;;;5069711;28;20040;-64
2021/01/20 05:00:20;;;;;;;13.43;2.85;;;24.90;54.50;;;;;;5064648;28;20395;-52
2021/01/20 05:02:48;;;;;;;12.15;3.00;;;24.90;53.60;;;;;;5069815;28;20029;-54
2021/01/20 05:05:16;;;;;;;7.90;2.60;;;24.90;52.40;;;;;;5070651;28;20107;-49
2021/01/20 05:07:43;;;;;;;8.45;2.55;;;24.90;53.20;;;;;;5069038;28;20108;-56
2021/01/20 05:10:11;;;;;;;17.15;3.38;;;24.90;53.60;;;;;;5066360;28;20074;-54
2021/01/20 05:12:43;;;;;;;16.25;3.58;;;24.90;53.20;;;;;;5070406;28;20043;-52
2021/01/20 05:15:16;;;;;;;13.35;3.08;;;24.90;54.10;;;;;;5068192;28;20016;-54
2021/01/20 05:17:59;;;;;;;12.23;3.30;;;24.90;54.80;;;;;;5067757;28;20040;-58
2021/01/20 05:20:32;;;;;;;11.38;3.28;;;24.90;52.80;;;;;;5065116;28;20029;-55
2021/01/20 05:23:10;;;;;;;10.43;2.72;;;24.90;53.50;;;;;;5070119;28;20063;-53
2021/01/20 05:25:44;;;;;;;9.15;2.58;;;24.90;53.30;;;;;;5070005;28;20108;-52
2021/01/20 05:28:22;;;;;;;9.35;2.80;;;24.90;54.70;;;;;;5069185;28;20028;-49
2021/01/20 05:30:55;;;;;;;9.80;2.72;;;24.90;54.40;;;;;;5065291;28;20048;-60
2021/01/20 05:33:24;;;;;;;8.88;3.03;;;24.80;53.60;;;;;;5069922;28;20016;-57
2021/01/20 05:36:15;;;;;;;15.68;2.80;;;24.80;55.00;;;;;;5070094;28;20533;-54
2021/01/20 05:38:44;;;;;;;8.43;2.30;;;24.90;54.60;;;;;;5068633;28;20541;-66
2021/01/20 05:41:19;;;;;;;9.90;2.70;;;24.80;54.60;;;;;;5064229;28;20064;-51
2021/01/20 05:43:47;;;;;;;10.43;2.42;;;24.80;54.90;;;;;;5069672;28;20039;-52
2021/01/20 05:46:29;;;;;;;13.95;2.65;;;24.90;55.20;;;;;;5069652;28;20029;-58
2021/01/20 05:48:56;;;;;;;11.13;2.60;;;24.90;55.50;;;;;;5068566;28;20065;-51
2021/01/20 05:51:24;;;;;;;12.40;2.90;;;24.90;54.70;;;;;;5064837;28;20457;-57
2021/01/20 05:53:56;;;;;;;10.38;3.05;;;24.90;55.20;;;;;;5072672;28;20025;-52
2021/01/20 05:56:26;;;;;;;;;;;24.90;55.00;;;;;;5072850;28;20103;-53
2021/01/20 05:58:54;;;;;;;8.95;2.45;;;24.90;54.80;;;;;;5072449;28;19914;-53
2021/01/20 06:01:23;;;;;;;7.75;2.22;;;24.90;55.40;;;;;;5057002;28;20452;-59
2021/01/20 06:03:51;;;;;;;8.40;2.38;;;24.90;56.30;;;;;;5051206;28;20029;-56
2021/01/20 06:06:20;;;;;;;13.30;2.70;;;24.90;54.10;;;;;;5052179;28;20021;-55
2021/01/20 06:08:48;;;;;;;17.27;2.63;;;24.80;54.40;;;;;;5049326;28;20383;-51
2021/01/20 06:11:16;;;;;;;9.90;2.17;;;24.90;54.40;;;;;;5049864;28;20025;-54
2021/01/20 06:13:43;;;;;;;15.45;3.17;;;24.90;55.00;;;;;;5051249;28;20098;-56
2021/01/20 06:16:20;;;;;;;10.50;3.28;;;24.90;55.00;;;;;;5052180;28;20406;-61
2021/01/20 06:18:51;;;;;;;9.75;3.28;;;24.90;55.20;;;;;;5051994;28;20104;-53
2021/01/20 06:21:19;;;;;;;19.08;2.95;;;24.90;56.20;;;;;;5051619;28;20119;-57
2021/01/20 06:24:03;;;;;;;16.38;3.10;;;25.00;56.40;;;;;;5051741;28;20387;-59
2021/01/20 06:26:31;;;;;;;15.45;3.30;;;25.00;55.20;;;;;;5052168;28;20035;-55
2021/01/20 06:29:08;;;;;;;14.38;2.80;;;24.90;56.00;;;;;;5051814;28;20029;-55
2021/01/20 06:31:42;;;;;;;18.02;3.08;;;25.00;56.60;;;;;;5051367;28;20098;-58
2021/01/20 06:34:10;;;;;;;14.02;3.05;;;25.00;57.20;;;;;;5051099;28;20039;-58
2021/01/20 06:36:38;;;;;;;15.38;3.85;;;25.10;57.00;;;;;;5051440;28;20093;-67
2021/01/20 06:39:33;;;;;;;16.13;3.05;;;25.10;57.00;;;;;;5050613;28;20467;-58
2021/01/20 06:42:02;;;;;;;19.05;3.25;;;25.10;57.80;;;;;;5049548;28;20408;-57
2021/01/20 06:44:30;;;;;;;19.50;3.45;;;25.10;57.00;;;;;;5051693;28;20096;-62
2021/01/20 06:46:57;;;;;;;22.02;3.33;;;25.10;57.60;;;;;;5051916;28;20025;-55
2021/01/20 06:49:25;;;;;;;33.67;4.78;;;25.10;56.90;;;;;;5051430;28;20037;-60
2021/01/20 06:52:17;;;;;;;32.25;4.03;;;25.10;58.40;;;;;;5051282;28;20372;-55
2021/01/20 06:54:48;;;;;;;21.20;4.38;;;25.10;58.40;;;;;;5051594;28;20025;-65
2021/01/20 06:57:31;;;;;;;14.45;3.78;;;25.00;58.10;;;;;;5051720;28;20379;-56
2021/01/20 07:00:13;;;;;;;26.75;4.43;;;25.00;58.90;;;;;;5051567;28;20037;-57
2021/01/20 07:03:04;;;;;;;37.28;4.78;;;25.00;58.80;;;;;;5051479;28;20040;-63
2021/01/20 07:05:44;;;;;;;20.15;3.58;;;25.00;59.10;;;;;;5056154;28;20020;-60
2021/01/20 07:08:12;;;;;;;26.33;5.10;;;25.00;57.40;;;;;;5071455;28;20434;-63
2021/01/20 07:11:02;;;;;;;18.58;4.18;;;25.00;57.30;;;;;;5072013;28;20443;-51
2021/01/20 07:13:40;;;;;;;40.90;5.00;;;24.90;56.20;;;;;;5069081;28;20475;-55
2021/01/20 07:16:09;;;;;;;14.73;3.60;;;24.90;56.10;;;;;;5069629;28;20029;-54
2021/01/20 07:18:42;;;;;;;38.67;4.70;;;24.90;57.60;;;;;;5070880;28;20518;-52
2021/01/20 07:21:10;;;;;;;9.52;3.05;;;24.90;56.40;;;;;;5070371;28;20064;-61
2021/01/20 07:23:38;;;;;;;23.17;4.07;;;24.90;56.40;;;;;;5069955;28;20111;-51
2021/01/20 07:26:06;;;;;;;73.95;54.83;;;24.90;55.80;;;;;;5069751;28;20382;-54
2021/01/20 07:28:35;;;;;;;20.20;11.48;;;24.90;56.00;;;;;;5070527;28;20059;-55
2021/01/20 07:31:11;;;;;;;22.67;13.77;;;24.90;56.30;;;;;;5071003;28;20352;-62
2021/01/20 07:33:40;;;;;;;34.33;21.75;;;24.90;56.40;;;;;;5070998;28;20059;-53
2021/01/20 07:36:12;;;;;;;29.65;17.00;;;24.90;56.70;;;;;;5070344;28;20501;-58
2021/01/20 07:38:40;;;;;;;23.05;15.35;;;24.90;57.70;;;;;;5069922;28;20024;-52
2021/01/20 07:41:17;;;;;;;21.08;11.07;;;24.90;57.60;;;;;;5070475;28;20033;-52
2021/01/20 07:43:45;;;;;;;25.52;10.10;;;24.90;56.70;;;;;;5070538;28;20024;-57
2021/01/20 07:46:20;;;;;;;25.48;11.95;;;24.90;57.60;;;;;;5070521;28;20382;-55
2021/01/20 07:48:48;;;;;;;22.52;9.05;;;24.80;57.80;;;;;;5068983;28;20027;-60
2021/01/20 07:51:23;;;;;;;28.88;10.10;;;24.90;59.70;;;;;;5068436;28;20039;-58
2021/01/20 07:54:00;;;;;;;56.05;11.35;;;24.90;60.80;;;;;;5057234;28;20043;-50
2021/01/20 07:56:28;;;;;;;46.65;12.27;;;24.80;62.00;;;;;;5065386;28;20033;-54
2021/01/20 07:59:16;;;;;;;28.95;9.43;;;24.80;60.90;;;;;;5067452;28;20471;-55
2021/01/20 08:01:44;;;;;;;38.53;13.98;;;24.90;61.60;;;;;;5064741;28;20056;-56
2021/01/20 08:04:27;;;;;;;49.28;11.25;;;24.90;61.20;;;;;;5064885;28;20025;-54
2021/01/20 08:06:54;;;;;;;47.03;11.05;;;24.90;65.50;;;;;;5066727;28;20025;-50
2021/01/20 08:09:22;;;;;;;32.10;11.75;;;24.90;65.40;;;;;;5070728;28;20024;-51
2021/01/20 08:11:49;;;;;;;27.25;12.50;;;24.90;66.40;;;;;;5071068;28;20029;-55
2021/01/20 08:14:18;;;;;;;30.17;10.55;;;24.90;65.50;;;;;;5071186;28;20413;-53
2021/01/20 08:16:45;;;;;;;23.52;9.10;;;25.00;66.60;;;;;;5070692;28;20028;-60
2021/01/20 08:19:13;;;;;;;27.38;8.57;;;25.00;65.90;;;;;;5069202;28;20033;-59
2021/01/20 08:21:44;;;;;;;19.88;6.22;;;25.00;66.20;;;;;;5070539;28;20495;-57
2021/01/20 08:24:11;;;;;;;24.70;6.50;;;25.00;66.20;;;;;;5070948;28;20052;-55
2021/01/20 08:26:39;;;;;;;24.88;6.38;;;24.90;66.10;;;;;;5070807;28;20057;-59
2021/01/20 08:29:11;;;;;;;29.55;7.57;;;24.90;67.00;;;;;;5070938;28;20024;-55
2021/01/20 08:31:41;;;;;;;24.48;6.13;;;25.00;68.00;;;;;;5069380;28;20032;-60
2021/01/20 08:34:25;;;;;;;47.53;5.70;;;25.00;67.30;;;;;;5072461;28;20031;-51
2021/01/20 08:36:56;;;;;;;20.27;5.20;;;24.90;67.30;;;;;;5073663;28;20391;-61
2021/01/20 08:39:25;;;;;;;23.80;5.18;;;24.90;66.80;;;;;;5074224;28;20077;-56
2021/01/20 08:42:21;;;;;;;23.10;4.88;;;24.90;66.10;;;;;;5074322;28;20070;-59
2021/01/20 08:45:21;;;;;;;23.45;5.28;;;24.90;63.80;;;;;;5074297;28;20048;-60
2021/01/20 08:47:54;;;;;;;21.05;4.05;;;24.80;62.00;;;;;;5051634;28;20037;-57
2021/01/20 08:50:21;;;;;;;16.83;4.13;;;24.70;61.40;;;;;;5074237;28;20021;-55
2021/01/20 08:52:55;;;;;;;17.98;4.10;;;24.70;61.40;;;;;;5074041;28;20024;-58
2021/01/20 08:55:36;;;;;;;22.98;4.28;;;24.60;60.00;;;;;;5074222;28;20120;-58
2021/01/20 08:58:31;;;;;;;12.45;3.65;;;24.60;60.40;;;;;;5074560;28;20044;-58
2021/01/20 09:01:04;;;;;;;15.88;3.90;;;24.50;61.50;;;;;;5074296;28;20042;-58
2021/01/20 09:03:52;;;;;;;13.68;3.40;;;24.50;61.50;;;;;;5074365;28;20075;-59
2021/01/20 09:06:19;;;;;;;25.15;4.47;;;24.40;61.50;;;;;;5073672;28;20112;-57
2021/01/20 09:08:47;;;;;;;16.83;4.53;;;24.40;62.00;;;;;;5074236;28;20078;-58
2021/01/20 09:11:14;;;;;;;13.93;4.20;;;24.40;60.30;;;;;;5073665;28;20031;-58
2021/01/20 09:13:43;;;;;;;10.02;3.63;;;24.30;62.70;;;;;;5073777;28;20028;-60
2021/01/20 09:16:11;;;;;;;22.85;4.60;;;24.30;62.70;;;;;;5073949;28;20069;-56
2021/01/20 09:18:39;;;;;;;15.73;3.88;;;24.30;61.90;;;;;;5073534;28;20388;-56
2021/01/20 09:21:07;;;;;;;14.52;3.50;;;24.30;61.40;;;;;;5073097;28;20079;-55
2021/01/20 09:23:34;;;;;;;12.43;4.15;;;24.30;60.60;;;;;;5073656;28;20056;-57
2021/01/20 09:26:01;;;;;;;18.95;4.47;;;24.20;60.40;;;;;;5065847;28;20060;-52
2021/01/20 09:28:29;;;;;;;10.57;4.18;;;24.20;60.00;;;;;;5067283;28;20028;-52
2021/01/20 09:30:56;;;;;;;12.48;3.83;;;24.10;60.30;;;;;;5067422;28;20039;-53
2021/01/20 09:33:24;;;;;;;18.73;3.83;;;24.10;60.20;;;;;;5070521;28;20039;-56
2021/01/20 09:35:51;;;;;;;11.57;3.25;;;24.10;60.10;;;;;;5067682;28;20021;-55
2021/01/20 09:38:21;;;;;;;15.55;3.38;;;24.10;60.80;;;;;;5067925;28;20032;-56
2021/01/20 09:40:48;;;;;;;11.88;3.70;;;24.00;60.60;;;;;;5068969;28;20024;-55
2021/01/20 09:43:16;;;;;;;9.38;3.45;;;24.00;60.10;;;;;;5065448;28;20067;-60
2021/01/20 09:45:47;;;;;;;15.35;3.45;;;23.90;60.40;;;;;;5066104;28;20049;-62
2021/01/20 09:48:16;;;;;;;15.70;3.42;;;23.90;61.10;;;;;;5067176;28;20035;-62
2021/01/20 09:50:46;;;;;;;20.52;4.13;;;23.90;60.40;;;;;;5062579;28;20090;-62
2021/01/20 09:53:14;;;;;;;11.95;3.33;;;24.00;60.80;;;;;;5066177;28;20113;-61
2021/01/20 09:55:41;;;;;;;21.15;3.97;;;24.00;60.60;;;;;;5066834;28;20383;-60
2021/01/20 09:58:09;;;;;;;12.32;3.15;;;24.00;60.50;;;;;;5068164;28;20036;-54
2021/01/20 10:00:37;;;;;;;16.90;3.67;;;24.00;60.30;;;;;;5064528;28;20372;-58
2021/01/20 10:03:06;;;;;;;10.82;3.42;;;23.90;60.40;;;;;;5070071;28;20086;-49
2021/01/20 10:05:34;;;;;;;9.38;3.03;;;24.00;60.30;;;;;;5070408;28;20032;-63
2021/01/20 10:08:01;;;;;;;12.90;3.90;;;23.90;60.50;;;;;;5069068;28;20048;-61
2021/01/20 10:10:29;;;;;;;12.27;4.00;;;23.90;60.50;;;;;;5066538;28;20027;-56
2021/01/20 10:12:56;;;;;;;10.40;3.00;;;24.00;60.70;;;;;;5069670;28;20535;-61
2021/01/20 10:15:24;;;;;;;11.20;3.35;;;23.90;60.80;;;;;;5069459;28;20408;-60
2021/01/20 10:17:52;;;;;;;15.15;3.88;;;23.90;60.60;;;;;;5069472;28;20589;-54
2021/01/20 10:20:21;;;;;;;13.82;3.42;;;23.90;61.10;;;;;;5065778;28;20028;-54
2021/01/20 10:22:54;;;;;;;17.17;3.10;;;23.90;61.10;;;;;;5070382;28;20024;-60
2021/01/20 10:25:31;;;;;;;10.27;3.70;;;23.90;61.20;;;;;;5068552;28;20027;-62
2021/01/20 10:27:59;;;;;;;13.60;3.70;;;23.90;61.20;;;;;;5067094;28;20039;-62
2021/01/20 10:30:31;;;;;;;8.95;2.80;;;23.90;61.40;;;;;;5064372;28;20118;-59
2021/01/20 10:33:00;;;;;;;10.23;2.95;;;23.90;61.50;;;;;;5066147;28;20044;-55
2021/01/20 10:35:27;;;;;;;13.80;3.38;;;23.80;61.30;;;;;;5067599;28;20069;-58
2021/01/20 10:37:57;;;;;;;12.63;2.97;;;23.80;61.30;;;;;;5065593;28;20077;-55
2021/01/20 10:40:25;;;;;;;11.23;3.50;;;23.80;61.50;;;;;;5064931;28;20047;-52
2021/01/20 10:42:52;;;;;;;11.02;3.33;;;23.80;61.50;;;;;;5068966;28;20035;-54
2021/01/20 10:45:20;;;;;;;13.45;2.80;;;23.80;61.80;;;;;;5069377;28;20105;-51
2021/01/20 10:47:47;;;;;;;13.98;3.25;;;23.70;61.70;;;;;;5068654;28;20028;-54
2021/01/20 10:50:14;;;;;;;11.02;3.05;;;23.70;61.80;;;;;;5064025;28;20033;-54
2021/01/20 10:52:42;;;;;;;12.70;3.17;;;23.70;61.80;;;;;;5069737;28;20100;-54
2021/01/20 10:55:09;;;;;;;11.00;3.47;;;23.70;61.70;;;;;;5068750;28;20473;-61
2021/01/20 10:57:37;;;;;;;8.77;3.17;;;23.70;61.90;;;;;;5067800;28;20028;-54
2021/01/20 11:00:05;;;;;;;7.78;2.97;;;23.60;61.90;;;;;;5065610;28;20029;-52
2021/01/20 11:02:33;;;;;;;9.68;2.85;;;23.70;61.90;;;;;;5068116;28;20037;-52
2021/01/20 11:05:00;;;;;;;10.18;3.25;;;23.70;62.00;;;;;;5068837;28;20074;-53
2021/01/20 11:07:27;;;;;;;7.90;3.20;;;23.70;62.00;;;;;;5069391;28;20058;-54
2021/01/20 11:09:56;;;;;;;15.98;3.45;;;23.60;61.90;;;;;;5064782;28;20033;-53
2021/01/20 11:12:24;;;;;;;10.40;3.50;;;23.60;61.90;;;;;;5067920;28;20471;-50
2021/01/20 11:14:51;;;;;;;10.82;3.45;;;23.60;61.90;;;;;;5069368;28;20045;-50
2021/01/20 11:17:18;;;;;;;12.35;3.40;;;23.60;62.00;;;;;;5068975;28;20499;-53
2021/01/20 11:19:46;;;;;;;8.20;2.83;;;23.60;62.00;;;;;;5065957;28;20112;-55
2021/01/20 11:22:13;;;;;;;7.20;2.47;;;23.60;62.00;;;;;;5067448;28;20062;-58
2021/01/20 11:24:40;;;;;;;9.35;3.30;;;23.60;61.90;;;;;;5069010;28;20132;-59
2021/01/20 11:27:08;;;;;;;7.05;2.67;;;23.60;61.90;;;;;;5067577;28;20382;-55
2021/01/20 11:29:35;;;;;;;8.70;3.08;;;23.60;61.90;;;;;;5066841;28;20033;-62
2021/01/20 11:32:02;;;;;;;10.82;2.80;;;23.60;61.90;;;;;;5066053;28;20037;-67
2021/01/20 11:34:30;;;;;;;11.70;3.10;;;23.60;61.90;;;;;;5068984;28;20028;-54
2021/01/20 11:36:57;;;;;;;3.90;2.15;;;23.60;61.80;;;;;;5068472;28;20052;-55
2021/01/20 11:39:24;;;;;;;8.27;2.58;;;23.50;61.80;;;;;;5067367;28;20024;-53
2021/01/20 11:41:52;;;;;;;9.38;3.17;;;23.50;61.80;;;;;;5064726;28;20090;-60
2021/01/20 11:44:20;;;;;;;9.45;2.40;;;23.50;61.70;;;;;;5069467;28;20048;-53
2021/01/20 11:46:47;;;;;;;7.88;3.38;;;23.50;61.60;;;;;;5068000;28;20078;-54
2021/01/20 11:49:15;;;;;;;8.40;3.05;;;23.40;61.60;;;;;;5068877;28;20492;-57
2021/01/20 11:51:42;;;;;;;9.15;3.03;;;23.40;61.60;;;;;;5064763;28;20028;-52
2021/01/20 11:54:09;;;;;;;12.40;3.00;;;23.40;61.50;;;;;;5069010;28;20108;-58
2021/01/20 11:56:37;;;;;;;11.68;2.60;;;23.40;61.40;;;;;;5068376;28;20089;-55
2021/01/20 11:59:05;;;;;;;5.45;2.63;;;23.40;61.40;;;;;;5068325;28;20017;-55
2021/01/20 12:01:33;;;;;;;8.75;3.25;;;23.40;61.40;;;;;;5063510;28;20028;-52
2021/01/20 12:04:03;;;;;;;9.50;2.42;;;23.40;61.40;;;;;;5068116;28;20025;-52
2021/01/20 12:06:30;;;;;;;8.65;3.10;;;23.40;61.40;;;;;;5068733;28;20116;-51
2021/01/20 12:08:57;;;;;;;10.43;2.67;;;23.40;61.50;;;;;;5070252;28;20073;-54
2021/01/20 12:11:25;;;;;;;10.55;3.20;;;23.30;61.50;;;;;;5068387;28;20107;-52
2021/01/20 12:13:52;;;;;;;7.70;3.15;;;23.30;61.70;;;;;;5072601;28;20028;-55
2021/01/20 12:16:20;;;;;;;10.25;3.03;;;23.30;61.40;;;;;;5072731;28;20478;-56
2021/01/20 12:18:47;;;;;;;17.35;3.25;;;23.30;61.30;;;;;;5072574;28;20028;-58
2021/01/20 12:21:15;;;;;;;7.22;2.50;;;23.30;61.40;;;;;;5067280;28;20045;-53
2021/01/20 12:23:42;;;;;;;10.40;2.80;;;23.30;61.30;;;;;;5072361;28;20021;-53
2021/01/20 12:26:09;;;;;;;8.05;2.38;;;23.30;61.40;;;;;;5072175;28;20044;-57
2021/01/20 12:28:37;;;;;;;9.70;3.05;;;23.30;61.30;;;;;;5071568;28;20337;-53
2021/01/20 12:31:04;;;;;;;6.10;2.80;;;23.30;61.30;;;;;;5069295;28;20024;-59
2021/01/20 12:33:32;;;;;;;9.18;2.53;;;23.30;61.30;;;;;;5074907;28;20367;-64
2021/01/20 12:35:59;;;;;;;6.65;2.33;;;23.30;61.40;;;;;;5074579;28;20028;-57
2021/01/20 12:38:26;;;;;;;4.85;2.17;;;23.20;61.40;;;;;;5074724;28;20035;-58
2021/01/20 12:40:54;;;;;;;7.78;2.83;;;23.20;61.20;;;;;;5074815;28;20032;-57
2021/01/20 12:43:21;;;;;;;6.82;2.47;;;23.20;61.20;;;;;;5075227;28;20039;-57
2021/01/20 12:45:48;;;;;;;8.77;2.85;;;23.20;61.20;;;;;;5074981;28;20029;-58
2021/01/20 12:48:16;;;;;;;7.60;2.63;;;23.10;61.20;;;;;;5075084;28;20120;-58
2021/01/20 12:50:43;;;;;;;9.20;3.30;;;23.10;61.30;;;;;;5075014;28;20119;-61
2021/01/20 12:53:10;;;;;;;6.68;2.92;;;23.10;61.40;;;;;;5074638;28;20078;-55